createdAt,value
2023-04-26T00:00:46.967Z,21.43
2023-04-26T00:03:17.650Z,21.47
2023-04-26T00:05:47.897Z,21.19
2023-04-26T00:08:18.403Z,21.11
2023-04-26T00:10:48.288Z,21.06
2023-04-26T00:13:18.682Z,20.88
2023-04-26T00:15:48.725Z,20.80
2023-04-26T00:18:19.267Z,20.82
2023-04-26T00:20:49.426Z,21.16
2023-04-26T00:23:19.860Z,21.32
2023-04-26T00:25:49.992Z,21.38
2023-04-26T00:28:20.492Z,21.41
2023-04-26T00:30:52.352Z,21.53
2023-04-26T00:33:22.914Z,21.55
2023-04-26T00:35:53.323Z,21.58
2023-04-26T00:38:23.936Z,21.46
2023-04-26T00:40:54.077Z,21.38
2023-04-26T00:43:24.520Z,21.31
2023-04-26T00:45:54.997Z,21.20
2023-04-26T00:48:25.667Z,21.31
2023-04-26T00:50:55.719Z,21.38
2023-04-26T00:53:26.633Z,21.49
2023-04-26T00:55:57.349Z,21.52
2023-04-26T00:58:28.124Z,21.60
2023-04-26T01:00:58.640Z,21.71
2023-04-26T01:03:29.257Z,21.81
2023-04-26T01:06:00.627Z,21.79
2023-04-26T01:08:30.850Z,21.82
2023-04-26T01:11:01.488Z,21.83
2023-04-26T01:13:33.467Z,21.82
2023-04-26T01:16:04.273Z,21.76
2023-04-26T01:18:34.289Z,21.73
2023-04-26T01:21:06.132Z,21.67
2023-04-26T01:23:36.169Z,21.69
2023-04-26T01:26:07.797Z,21.65
2023-04-26T01:28:37.936Z,21.72
2023-04-26T01:31:08.931Z,21.71
2023-04-26T01:33:39.025Z,21.66
2023-04-26T01:36:12.986Z,21.65
2023-04-26T01:38:42.973Z,21.58
2023-04-26T01:41:13.577Z,21.53
2023-04-26T01:43:43.595Z,21.51
2023-04-26T01:46:14.064Z,21.43
2023-04-26T01:48:44.160Z,21.41
2023-04-26T01:51:14.862Z,21.36
2023-04-26T01:53:44.868Z,21.25
2023-04-26T01:56:15.424Z,21.19
2023-04-26T01:58:45.441Z,21.12
2023-04-26T02:01:15.930Z,21.08
2023-04-26T02:03:47.523Z,21.00
2023-04-26T02:06:18.413Z,20.99
2023-04-26T02:08:48.873Z,20.97
2023-04-26T02:11:19.376Z,20.95
2023-04-26T02:13:49.421Z,21.02
2023-04-26T02:16:23.630Z,21.09
2023-04-26T02:18:54.720Z,21.13
2023-04-26T02:21:25.404Z,21.18
2023-04-26T02:23:55.630Z,21.21
2023-04-26T02:26:28.108Z,21.25
2023-04-26T02:28:59.187Z,21.24
2023-04-26T02:31:30.351Z,21.28
2023-04-26T02:34:00.418Z,21.32
2023-04-26T02:36:31.256Z,21.24
2023-04-26T02:39:02.041Z,21.29
2023-04-26T02:41:34.443Z,21.33
2023-04-26T02:44:04.511Z,21.34
2023-04-26T02:46:35.046Z,21.39
2023-04-26T02:49:05.302Z,21.39
2023-04-26T02:51:35.916Z,21.37
2023-04-26T02:54:07.067Z,21.35
2023-04-26T02:56:37.680Z,21.34
2023-04-26T02:59:08.281Z,21.31
2023-04-26T03:01:38.819Z,21.32
2023-04-26T03:04:09.481Z,21.27
2023-04-26T03:06:40.705Z,21.26
2023-04-26T03:09:10.714Z,21.26
2023-04-26T03:12:02.508Z,21.17
2023-04-26T03:14:33.262Z,21.18
2023-04-26T03:17:04.634Z,21.15
2023-04-26T03:19:35.872Z,21.09
2023-04-26T03:22:07.586Z,21.04
2023-04-26T03:24:37.526Z,21.06
2023-04-26T03:27:07.946Z,21.08
2023-04-26T03:29:38.013Z,21.02
2023-04-26T03:32:09.003Z,21.00
2023-04-26T03:34:38.995Z,20.99
2023-04-26T03:37:09.017Z,20.71
2023-04-26T03:39:41.306Z,20.39
2023-04-26T03:42:12.460Z,20.26
2023-04-26T03:44:43.096Z,20.15
2023-04-26T03:47:13.283Z,20.50
2023-04-26T03:49:44.122Z,20.67
2023-04-26T03:52:14.133Z,20.73
2023-04-26T03:54:44.597Z,20.69
2023-04-26T03:57:14.966Z,20.71
2023-04-26T03:59:45.359Z,20.74
2023-04-26T04:02:15.913Z,20.74
2023-04-26T04:04:46.659Z,20.77
2023-04-26T04:07:17.923Z,20.80
2023-04-26T04:09:48.564Z,20.81
2023-04-26T04:12:18.716Z,20.51
2023-04-26T04:14:49.324Z,20.45
2023-04-26T04:17:19.792Z,20.41
2023-04-26T04:19:50.299Z,20.35
2023-04-26T04:22:20.179Z,20.45
2023-04-26T04:24:50.594Z,20.19
2023-04-26T04:27:22.346Z,20.17
2023-04-26T04:29:52.831Z,20.43
2023-04-26T04:32:24.930Z,20.56
2023-04-26T04:34:55.485Z,20.61
2023-04-26T04:37:26.801Z,20.52
2023-04-26T04:39:57.806Z,20.46
2023-04-26T04:42:30.689Z,20.45
2023-04-26T04:45:01.141Z,20.34
2023-04-26T04:47:32.121Z,20.28
2023-04-26T04:50:03.148Z,20.23
2023-04-26T04:52:34.458Z,20.17
2023-04-26T04:55:06.039Z,20.17
2023-04-26T04:57:39.040Z,20.10
2023-04-26T05:00:11.473Z,20.07
2023-04-26T05:03:04.413Z,20.02
2023-04-26T05:05:35.235Z,20.01
2023-04-26T05:08:08.826Z,20.07
2023-04-26T05:10:39.629Z,20.16
2023-04-26T05:13:09.860Z,20.08
2023-04-26T05:15:41.479Z,20.13
2023-04-26T05:18:11.522Z,19.99
2023-04-26T05:20:42.677Z,19.91
2023-04-26T05:23:12.738Z,19.71
2023-04-26T05:25:43.267Z,19.86
2023-04-26T05:28:43.293Z,19.96
2023-04-26T05:31:27.247Z,19.99
2023-04-26T05:34:20.647Z,20.06
2023-04-26T05:36:56.912Z,20.07
2023-04-26T05:39:27.191Z,20.05
2023-04-26T05:41:57.647Z,20.03
2023-04-26T05:44:28.020Z,19.80
2023-04-26T05:46:58.944Z,19.69
2023-04-26T05:49:29.729Z,19.57
2023-04-26T05:52:04.731Z,19.65
2023-04-26T05:54:34.758Z,19.75
2023-04-26T05:57:05.239Z,19.88
2023-04-26T05:59:38.396Z,19.70
2023-04-26T06:02:09.005Z,19.82
2023-04-26T06:04:39.396Z,19.96
2023-04-26T06:07:13.953Z,20.02
2023-04-26T06:09:44.190Z,19.77
2023-04-26T06:12:14.698Z,19.87
2023-04-26T06:14:47.244Z,19.74
2023-04-26T06:17:22.618Z,19.90
2023-04-26T06:19:53.038Z,19.84
2023-04-26T06:22:23.506Z,19.67
2023-04-26T06:24:53.589Z,19.96
2023-04-26T06:27:24.197Z,20.08
2023-04-26T06:29:54.385Z,20.08
2023-04-26T06:32:26.373Z,20.05
2023-04-26T06:34:57.218Z,20.08
2023-04-26T06:37:29.355Z,20.06
2023-04-26T06:39:59.580Z,19.97
2023-04-26T06:42:30.062Z,19.94
2023-04-26T06:45:25.348Z,19.92
2023-04-26T06:47:58.221Z,19.88
2023-04-26T06:50:28.519Z,19.91
2023-04-26T06:52:59.211Z,19.92
2023-04-26T06:55:29.214Z,19.95
2023-04-26T06:57:59.655Z,19.97
2023-04-26T07:00:30.946Z,19.91
2023-04-26T07:03:01.482Z,19.93
2023-04-26T07:05:31.625Z,19.91
2023-04-26T07:08:02.089Z,19.81
2023-04-26T07:10:33.527Z,19.83
2023-04-26T07:13:05.321Z,19.49
2023-04-26T07:15:37.480Z,19.49
2023-04-26T07:18:07.906Z,19.42
2023-04-26T07:20:37.969Z,19.32
2023-04-26T07:23:08.493Z,19.15
2023-04-26T07:25:38.477Z,19.03
2023-04-26T07:28:09.738Z,18.99
2023-04-26T07:30:39.747Z,18.96
2023-04-26T07:33:09.649Z,19.03
2023-04-26T07:35:40.164Z,19.23
2023-04-26T07:38:10.894Z,19.39
2023-04-26T07:40:41.630Z,19.37
2023-04-26T07:43:11.650Z,19.46
2023-04-26T07:45:42.115Z,19.47
2023-04-26T07:48:12.339Z,19.44
2023-04-26T07:50:42.924Z,19.48
2023-04-26T07:53:12.818Z,19.51
2023-04-26T07:55:43.302Z,19.52
2023-04-26T07:58:15.689Z,19.37
2023-04-26T08:00:46.232Z,19.26
2023-04-26T08:03:22.261Z,19.19
2023-04-26T08:05:53.087Z,19.30
2023-04-26T08:08:29.222Z,19.51
2023-04-26T08:10:59.695Z,19.56
2023-04-26T08:13:29.798Z,19.57
2023-04-26T08:16:00.291Z,19.58
2023-04-26T08:18:30.324Z,19.55
2023-04-26T08:21:00.804Z,19.53
2023-04-26T08:23:30.913Z,19.63
2023-04-26T08:26:01.802Z,19.58
2023-04-26T08:28:31.921Z,19.63
2023-04-26T08:31:02.740Z,19.38
2023-04-26T08:33:34.203Z,19.29
2023-04-26T08:36:06.167Z,19.17
2023-04-26T08:38:36.687Z,19.03
2023-04-26T08:41:08.265Z,19.02
2023-04-26T08:43:40.114Z,19.02
2023-04-26T08:46:17.532Z,19.01
2023-04-26T08:48:56.315Z,19.05
2023-04-26T08:51:27.131Z,18.97
2023-04-26T08:53:59.438Z,19.01
2023-04-26T08:56:29.985Z,19.05
2023-04-26T08:59:02.072Z,19.10
2023-04-26T09:01:34.876Z,19.10
2023-04-26T09:04:05.209Z,19.04
2023-04-26T09:06:36.873Z,18.96
2023-04-26T09:09:10.264Z,18.96
2023-04-26T09:11:58.917Z,18.99
2023-04-26T09:14:29.302Z,18.88
2023-04-26T09:16:59.792Z,18.84
2023-04-26T09:19:45.840Z,18.81
2023-04-26T09:22:16.283Z,18.91
2023-04-26T09:24:55.970Z,18.92
2023-04-26T09:27:38.131Z,18.92
2023-04-26T09:30:10.544Z,18.83
2023-04-26T09:32:57.060Z,18.96
2023-04-26T09:35:45.869Z,19.06
2023-04-26T09:38:18.911Z,19.21
2023-04-26T09:40:51.764Z,19.07
2023-04-26T09:43:23.831Z,18.98
2023-04-26T09:45:56.282Z,18.86
2023-04-26T09:48:31.273Z,18.91
2023-04-26T09:51:02.018Z,19.00
2023-04-26T09:53:42.332Z,18.87
2023-04-26T09:56:12.452Z,18.88
2023-04-26T09:59:02.371Z,18.86
2023-04-26T10:01:32.561Z,18.86
2023-04-26T10:04:03.563Z,18.96
2023-04-26T10:06:34.130Z,18.99
2023-04-26T10:09:06.678Z,18.91
2023-04-26T10:11:40.424Z,18.82
2023-04-26T10:14:11.102Z,18.89
2023-04-26T10:16:42.207Z,18.92
2023-04-26T10:19:13.183Z,18.96
2023-04-26T10:21:45.606Z,18.94
2023-04-26T10:24:17.553Z,18.98
2023-04-26T10:26:58.542Z,18.81
2023-04-26T10:30:00.751Z,18.80
2023-04-26T10:32:30.856Z,18.79
2023-04-26T10:35:15.049Z,18.76
2023-04-26T10:38:11.318Z,18.76
2023-04-26T10:40:42.814Z,18.74
2023-04-26T10:43:20.074Z,18.72
2023-04-26T10:45:51.701Z,18.71
2023-04-26T10:48:32.143Z,18.69
2023-04-26T10:51:02.773Z,18.66
2023-04-26T10:53:34.379Z,18.65
2023-04-26T10:56:05.550Z,18.65
2023-04-26T10:58:37.123Z,18.70
2023-04-26T11:01:07.750Z,18.67
2023-04-26T11:03:38.586Z,18.64
2023-04-26T11:06:16.477Z,18.66
2023-04-26T11:08:47.000Z,18.67
2023-04-26T11:11:20.591Z,18.64
2023-04-26T11:13:50.668Z,18.66
2023-04-26T11:16:21.302Z,18.65
2023-04-26T11:18:51.645Z,18.71
2023-04-26T11:21:23.585Z,18.71
2023-04-26T11:23:57.055Z,18.72
2023-04-26T11:26:36.287Z,18.75
2023-04-26T11:29:10.764Z,18.72
2023-04-26T11:31:41.896Z,18.71
2023-04-26T11:34:14.062Z,18.69
2023-04-26T11:36:47.661Z,18.71
2023-04-26T11:39:17.786Z,18.79
2023-04-26T11:41:48.269Z,18.78
2023-04-26T11:44:22.030Z,18.90
2023-04-26T11:46:52.994Z,18.91
2023-04-26T11:49:23.249Z,18.96
2023-04-26T11:51:53.902Z,18.94
2023-04-26T11:54:35.795Z,18.97
2023-04-26T11:57:19.913Z,19.03
2023-04-26T11:59:49.911Z,19.00
2023-04-26T12:02:21.932Z,18.97
2023-04-26T12:05:00.937Z,18.94
2023-04-26T12:07:40.462Z,19.03
2023-04-26T12:10:25.667Z,19.15
2023-04-26T12:12:58.072Z,19.31
2023-04-26T12:15:34.666Z,19.37
2023-04-26T12:18:13.327Z,19.43
2023-04-26T12:20:45.062Z,19.43
2023-04-26T12:23:17.819Z,19.49
2023-04-26T12:26:00.863Z,19.34
2023-04-26T12:28:31.533Z,19.24
2023-04-26T12:31:02.710Z,19.11
2023-04-26T12:33:34.180Z,19.14
2023-04-26T12:36:12.912Z,19.24
2023-04-26T12:38:43.971Z,19.32
2023-04-26T12:41:13.975Z,19.48
2023-04-26T12:43:44.462Z,19.69
2023-04-26T12:46:14.569Z,19.76
2023-04-26T12:48:45.124Z,19.76
2023-04-26T12:51:15.080Z,19.89
2023-04-26T12:53:45.567Z,20.11
2023-04-26T12:56:17.432Z,20.40
2023-04-26T12:58:51.181Z,20.72
2023-04-26T13:01:21.262Z,20.95
2023-04-26T13:03:52.153Z,21.19
2023-04-26T13:06:22.372Z,21.24
2023-04-26T13:08:53.076Z,21.34
2023-04-26T13:11:23.282Z,21.88
2023-04-26T13:13:53.883Z,22.37
2023-04-26T13:16:23.948Z,23.09
2023-04-26T13:18:55.628Z,23.60
2023-04-26T13:21:25.816Z,23.92
2023-04-26T13:23:56.241Z,24.08
2023-04-26T13:26:27.825Z,24.64
2023-04-26T13:28:58.083Z,25.26
2023-04-26T13:31:28.199Z,26.16
2023-04-26T13:33:58.717Z,26.28
2023-04-26T13:36:29.104Z,26.42
2023-04-26T13:38:59.540Z,27.18
2023-04-26T13:41:34.470Z,28.22
2023-04-26T13:44:06.103Z,28.12
2023-04-26T13:46:36.731Z,28.03
2023-04-26T13:49:08.306Z,28.37
2023-04-26T13:51:38.772Z,28.06
2023-04-26T13:54:09.394Z,27.44
2023-04-26T13:56:39.621Z,26.38
2023-04-26T13:59:10.065Z,25.94
2023-04-26T14:01:41.714Z,25.73
2023-04-26T14:04:12.012Z,25.55
2023-04-26T14:06:42.109Z,26.10
2023-04-26T14:09:13.347Z,26.19
2023-04-26T14:11:43.864Z,25.91
2023-04-26T14:14:15.075Z,25.83
2023-04-26T14:16:45.004Z,25.82
2023-04-26T14:19:18.242Z,25.59
2023-04-26T14:21:48.324Z,25.38
2023-04-26T14:24:18.766Z,25.07
2023-04-26T14:26:48.739Z,24.71
2023-04-26T14:29:19.167Z,24.24
2023-04-26T14:31:49.271Z,23.90
2023-04-26T14:34:19.924Z,23.82
2023-04-26T14:36:50.365Z,23.82
2023-04-26T14:39:23.330Z,23.79
2023-04-26T14:41:56.452Z,23.97
2023-04-26T14:44:27.414Z,24.60
2023-04-26T14:46:57.557Z,25.26
2023-04-26T14:49:28.098Z,26.90
2023-04-26T14:51:58.119Z,28.41
2023-04-26T14:54:28.524Z,28.30
2023-04-26T14:56:59.350Z,27.59
2023-04-26T14:59:29.792Z,28.33
2023-04-26T15:02:00.125Z,29.09
2023-04-26T15:04:31.015Z,29.08
2023-04-26T15:07:01.236Z,28.43
2023-04-26T15:09:31.997Z,27.39
2023-04-26T15:12:03.657Z,26.56
2023-04-26T15:14:33.639Z,26.39
2023-04-26T15:17:03.338Z,27.39
2023-04-26T15:19:33.668Z,28.33
2023-04-26T15:22:04.084Z,28.51
2023-04-26T15:24:38.342Z,28.29
2023-04-26T15:27:08.754Z,29.18
2023-04-26T15:29:38.849Z,30.01
2023-04-26T15:32:09.277Z,30.78
2023-04-26T15:34:44.375Z,30.28
2023-04-26T15:37:14.917Z,29.97
2023-04-26T15:39:45.183Z,29.69
2023-04-26T15:42:15.575Z,29.80
2023-04-26T15:44:45.598Z,31.06
2023-04-26T15:47:16.000Z,30.07
2023-04-26T15:49:46.081Z,30.72
2023-04-26T15:52:18.196Z,31.35
2023-04-26T15:54:48.324Z,30.27
2023-04-26T15:57:18.834Z,30.01
2023-04-26T15:59:48.882Z,30.20
2023-04-26T16:02:19.387Z,30.18
2023-04-26T16:04:49.909Z,29.95
2023-04-26T16:07:20.824Z,30.05
2023-04-26T16:09:50.852Z,30.62
2023-04-26T16:12:21.266Z,30.78
2023-04-26T16:14:52.809Z,31.63
2023-04-26T16:17:23.254Z,31.45
2023-04-26T16:19:53.358Z,30.51
2023-04-26T16:22:23.773Z,30.26
2023-04-26T16:24:53.775Z,29.77
2023-04-26T16:27:24.204Z,29.54
2023-04-26T16:29:55.160Z,29.14
2023-04-26T16:32:27.307Z,28.36
2023-04-26T16:34:57.527Z,29.23
2023-04-26T16:37:28.042Z,29.79
2023-04-26T16:39:58.327Z,30.66
2023-04-26T16:42:31.176Z,31.31
2023-04-26T16:45:01.284Z,30.82
2023-04-26T16:47:31.702Z,30.72
2023-04-26T16:50:01.963Z,31.01
2023-04-26T16:52:33.234Z,29.82
2023-04-26T16:55:03.443Z,29.15
2023-04-26T16:57:34.275Z,28.73
2023-04-26T17:00:06.449Z,28.89
2023-04-26T17:02:37.308Z,29.97
2023-04-26T17:05:08.061Z,31.02
2023-04-26T17:07:38.953Z,30.57
2023-04-26T17:10:09.798Z,29.41
2023-04-26T17:12:40.353Z,28.68
2023-04-26T17:15:10.856Z,28.41
2023-04-26T17:17:41.319Z,27.92
2023-04-26T17:20:14.598Z,28.14
2023-04-26T17:22:45.079Z,29.32
2023-04-26T17:25:15.281Z,29.71
2023-04-26T17:27:45.809Z,29.54
2023-04-26T17:30:16.448Z,29.76
2023-04-26T17:32:47.262Z,29.42
2023-04-26T17:35:18.237Z,29.67
2023-04-26T17:37:50.922Z,30.57
2023-04-26T17:40:22.412Z,30.47
2023-04-26T17:42:52.484Z,30.45
2023-04-26T17:45:23.133Z,30.77
2023-04-26T17:47:53.297Z,30.98
2023-04-26T17:50:25.260Z,31.20
2023-04-26T17:52:55.309Z,30.50
2023-04-26T17:55:25.851Z,29.76
2023-04-26T17:57:55.848Z,29.62
2023-04-26T18:00:26.500Z,29.10
2023-04-26T18:02:58.732Z,28.91
2023-04-26T18:05:29.324Z,28.56
2023-04-26T18:08:00.165Z,28.19
2023-04-26T18:10:30.665Z,28.03
2023-04-26T18:13:00.703Z,27.80
2023-04-26T18:15:30.781Z,27.52
2023-04-26T18:18:01.266Z,27.19
2023-04-26T18:20:31.446Z,27.13
2023-04-26T18:23:01.985Z,26.58
2023-04-26T18:25:32.062Z,26.47
2023-04-26T18:28:02.492Z,27.60
2023-04-26T18:30:32.703Z,28.05
2023-04-26T18:33:03.151Z,27.99
2023-04-26T18:35:33.216Z,27.47
2023-04-26T18:38:03.716Z,27.41
2023-04-26T18:40:33.772Z,27.59
2023-04-26T18:43:03.610Z,27.90
2023-04-26T18:45:34.712Z,28.91
2023-04-26T18:48:04.868Z,28.58
2023-04-26T18:50:35.985Z,28.36
2023-04-26T18:53:06.033Z,28.76
2023-04-26T18:55:36.504Z,28.58
2023-04-26T18:58:06.604Z,28.73
2023-04-26T19:00:37.083Z,28.25
2023-04-26T19:03:07.289Z,27.90
2023-04-26T19:05:38.508Z,27.64
2023-04-26T19:08:08.869Z,27.51
2023-04-26T19:10:39.523Z,27.46
2023-04-26T19:13:09.510Z,27.79
2023-04-26T19:15:40.029Z,27.46
2023-04-26T19:18:10.079Z,27.07
2023-04-26T19:20:41.057Z,26.66
2023-04-26T19:23:11.036Z,26.17
2023-04-26T19:25:41.596Z,25.94
2023-04-26T19:28:11.599Z,25.82
2023-04-26T19:30:42.094Z,25.65
2023-04-26T19:33:12.266Z,25.61
2023-04-26T19:35:42.843Z,25.61
2023-04-26T19:38:13.271Z,25.65
2023-04-26T19:40:45.244Z,25.71
2023-04-26T19:43:15.277Z,25.81
2023-04-26T19:45:46.815Z,25.89
2023-04-26T19:48:17.084Z,25.85
2023-04-26T19:50:48.599Z,25.62
2023-04-26T19:53:18.648Z,25.41
2023-04-26T19:55:49.118Z,25.42
2023-04-26T19:58:19.159Z,25.29
2023-04-26T20:00:49.656Z,25.26
2023-04-26T20:03:19.870Z,24.99
2023-04-26T20:05:50.634Z,24.85
2023-04-26T20:08:20.618Z,24.61
2023-04-26T20:10:51.411Z,24.52
2023-04-26T20:13:21.473Z,24.31
2023-04-26T20:15:51.977Z,24.13
2023-04-26T20:18:22.410Z,24.00
2023-04-26T20:20:53.631Z,23.91
2023-04-26T20:23:23.625Z,23.68
2023-04-26T20:25:54.259Z,23.66
2023-04-26T20:28:25.626Z,23.57
2023-04-26T20:30:56.194Z,23.66
2023-04-26T20:33:26.241Z,23.62
2023-04-26T20:35:56.811Z,23.60
2023-04-26T20:38:27.562Z,23.48
2023-04-26T20:40:59.112Z,23.43
2023-04-26T20:43:29.662Z,23.40
2023-04-26T20:46:00.180Z,23.35
2023-04-26T20:48:29.999Z,23.28
2023-04-26T20:51:02.557Z,23.03
2023-04-26T20:53:33.237Z,22.88
2023-04-26T20:56:03.737Z,22.73
2023-04-26T20:58:33.782Z,22.60
2023-04-26T21:01:07.439Z,22.53
2023-04-26T21:03:38.053Z,22.44
2023-04-26T21:06:08.745Z,22.44
2023-04-26T21:08:38.728Z,22.39
2023-04-26T21:11:09.199Z,22.39
2023-04-26T21:13:39.017Z,22.34
2023-04-26T21:16:09.787Z,22.34
2023-04-26T21:18:39.830Z,22.25
2023-04-26T21:21:10.284Z,22.26
2023-04-26T21:23:40.092Z,22.25
2023-04-26T21:26:10.554Z,22.20
2023-04-26T21:28:40.542Z,22.16
2023-04-26T21:31:11.153Z,22.07
2023-04-26T21:33:41.311Z,21.98
2023-04-26T21:36:12.445Z,21.95
2023-04-26T21:38:42.447Z,21.89
2023-04-26T21:41:12.948Z,21.82
2023-04-26T21:43:42.951Z,21.72
2023-04-26T21:46:13.523Z,21.80
2023-04-26T21:48:43.636Z,21.82
2023-04-26T21:51:14.282Z,21.82
2023-04-26T21:53:44.680Z,21.82
2023-04-26T21:56:15.902Z,21.87
2023-04-26T21:58:45.990Z,21.84
2023-04-26T22:01:17.752Z,21.96
2023-04-26T22:03:50.898Z,22.10
2023-04-26T22:06:21.546Z,22.12
2023-04-26T22:08:51.692Z,22.10
2023-04-26T22:11:22.866Z,22.18
2023-04-26T22:13:53.048Z,22.19
2023-04-26T22:16:23.560Z,22.25
2023-04-26T22:18:53.564Z,22.26
2023-04-26T22:21:24.062Z,22.26
2023-04-26T22:23:54.132Z,22.18
2023-04-26T22:26:24.593Z,22.19
2023-04-26T22:28:54.779Z,22.17
2023-04-26T22:31:25.344Z,22.05
2023-04-26T22:33:55.359Z,22.11
2023-04-26T22:36:25.648Z,22.10
2023-04-26T22:38:56.278Z,22.17
2023-04-26T22:41:26.828Z,22.11
2023-04-26T22:43:57.623Z,22.09
2023-04-26T22:46:27.904Z,22.10
2023-04-26T22:48:58.875Z,22.10
2023-04-26T22:51:30.058Z,22.04
2023-04-26T22:54:00.848Z,22.00
2023-04-26T22:56:31.022Z,21.89
2023-04-26T22:59:01.475Z,21.76
2023-04-26T23:01:32.328Z,21.70
2023-04-26T23:04:02.831Z,21.65
2023-04-26T23:06:34.251Z,21.59
2023-04-26T23:09:04.703Z,21.55
2023-04-26T23:11:34.789Z,21.53
2023-04-26T23:14:06.734Z,21.56
2023-04-26T23:16:39.660Z,21.53
2023-04-26T23:19:10.876Z,21.55
2023-04-26T23:21:41.275Z,21.56
2023-04-26T23:24:11.821Z,21.51
2023-04-26T23:26:41.995Z,21.47
2023-04-26T23:29:12.817Z,21.40
2023-04-26T23:31:43.162Z,21.36
2023-04-26T23:34:13.601Z,21.26
2023-04-26T23:36:43.518Z,21.22
2023-04-26T23:39:15.258Z,21.19
2023-04-26T23:41:46.625Z,21.17
2023-04-26T23:44:17.033Z,21.05
2023-04-26T23:46:47.554Z,21.02
2023-04-26T23:49:18.670Z,20.91
2023-04-26T23:51:49.294Z,20.89
2023-04-26T23:54:20.578Z,20.80
2023-04-26T23:56:50.841Z,20.82
2023-04-26T23:59:21.253Z,20.77
